Nearby METAR Reports

 

KHIF - Hill Afb/Ogden, Utah, USA
Distance from station: ENE 6mi, 9km
Updated: Wed, 20-Jan-2021 11:56am MST
NOT Current
Clear
Clear
 Wind from calm
Wind: Calm
Temperature: 37°F , 3°C
Dew Point: 16°F , -9°C
Humidity: 41%
Barometer: 30.25 inHg , 1024.4 hPa
Clouds: Clear
Visibility: 10 miles , 16 km
2021/01/20 18:56 KHIF 201856Z 00000KT 10SM CLR 03/M09 A3025 RMK AO2A SLP256 T00281089
KOGD - Ogden, Utah, USA
Distance from station: NNE 9mi, 14km
Updated: Sun, 24-Jan-2021 4:32am MST
Light snow, Overcast
Light snow, Overcast
 Wind from S
Wind: S 3 mph , 6 km/h
Temperature: 30°F , -1°C
Dew Point: 25°F , -4°C
Humidity: 80%
Barometer: 29.85 inHg , 1010.8 hPa
Summary: Light Snow
Clouds: Overcast
Visibility: 5 miles , 8 km
Cloud details: Overcast 2300 ft
2021/01/24 11:32 KOGD 241132Z AUTO 18003KT 5SM -SN OVC023 M01/M04 A2985 RMK AO2 P0000 T10111039 $
 
KSLC - Salt Lake City, Utah, USA
Distance from station: SSE 21mi, 34km
Updated: Sun, 24-Jan-2021 3:54am MST
Light snow, Mist, Overcast
Light snow, Mist, Overcast
 Wind from WNW
Wind: WNW 6 mph , 9 km/h
Temperature: 27°F , -3°C
Wind Chill: 20°F , -7°C
Dew Point: 27°F , -3°C
Humidity: 100%
Barometer: 29.87 inHg , 1011.5 hPa
Summary: Light snow, Mist
Clouds: Overcast
Visibility: 6 miles , 10 km
Cloud details: Few Clouds 500 ft
Few Clouds 1300 ft
Overcast 1800 ft
2021/01/24 10:54 KSLC 241054Z 30005KT 6SM -SN BR FEW005 FEW013 OVC018 M03/M03 A2987 RMK AO2 SLP129 P0001 T10281028 $
KLGU - Logan, Utah, USA
Distance from station: NNE 50mi, 80km
Updated: Sun, 24-Jan-2021 4:30am MST
Light snow, Mist, Overcast
Light snow, Mist, Overcast
 Wind from calm
Wind: Calm
Temperature: 25°F , -4°C
Dew Point: 21°F , -6°C
Humidity: 86%
Barometer: 29.87 inHg , 1011.5 hPa
Summary: Light snow, Mist
Clouds: Overcast
Visibility: 5 miles , 8 km
Cloud details: Mostly cloudy 1300 ft
Mostly cloudy 2000 ft
Overcast 3500 ft
2021/01/24 11:30 KLGU 241130Z AUTO 00000KT 5SM -SN BR BKN013 BKN020 OVC035 M04/M06 A2987 RMK AO2 P0000 T10441056
 
K36U - Heber/Russ Mcdon, Utah, USA
Distance from station: SE 53mi, 85km
Updated: Wed, 11-Oct-2017 6:50pm MDT
NOT Current
Clear
Clear
 Wind from SSW
Wind: SSW 10 mph , 17 km/h, Gust: 18 mph , 30 km/h
Temperature: 63°F , 17°C
Dew Point: 16°F , -9°C
Humidity: 16%
Barometer: 29.87 inHg , 1011.5 hPa
Clouds: Clear
Visibility: 10 miles , 16 km
2017/10/12 00:50 K36U 120050Z AUTO 21009G16KT 10SM CLR 17/M09 A2987 RMK AO2
KEVW - Evanston, Wyoming, USA
Distance from station: ENE 55mi, 89km
Updated: Sun, 24-Jan-2021 4:23am MST
Overcast
Overcast
 Wind from calm
Wind: Calm
Temperature: 18°F , -8°C
Dew Point: 16°F , -9°C
Humidity: 93%
Barometer: 29.77 inHg , 1008.1 hPa
Clouds: Overcast
Visibility: 10 miles , 16 km
Cloud details: Mostly cloudy 1800 ft
Overcast 2800 ft
2021/01/24 11:23 KEVW 241123Z AUTO 00000KT 10SM BKN018 OVC028 M08/M09 A2977 RMK AO2 SNE16 P0000 T10781094
 
KPVU - Provo Muni, Utah, USA
Distance from station: SSE 62mi, 100km
Updated: Sun, 24-Jan-2021 3:56am MST
Overcast
Overcast
 Wind from W
Wind: W 9 mph , 15 km/h
Temperature: 32°F , 0°C
Wind Chill: 24°F , -4°C
Dew Point: 25°F , -4°C
Humidity: 75%
Barometer: 29.86 inHg , 1011.2 hPa
Clouds: Overcast
Visibility: 10 miles , 16 km
Cloud details: Mostly cloudy 4300 ft
Overcast 5000 ft
2021/01/24 10:56 KPVU 241056Z AUTO 28008KT 10SM BKN043 OVC050 00/M04 A2986 RMK AO2 SLP121 T00001039 FZRANO
KDPG - Dugway Prvg Grou, Utah, USA
Distance from station: SW 75mi, 121km
Updated: Wed, 20-Jan-2021 10:55am MST
NOT Current
Few Clouds
Few Clouds
 Wind from WSW
Wind: WSW 3 mph , 6 km/h
Temperature: 36°F , 2°C
Dew Point: 18°F , -8°C
Humidity: 48%
Barometer: 30.29 inHg , 1025.7 hPa
Clouds: Few Clouds
Visibility: 45 miles , 72 km
Cloud details: Few Clouds 18000 ft
Few Clouds 25000 ft
2021/01/20 17:55 KDPG 201755Z 25003KT 45SM FEW180 FEW250 02/M08 A3029 RMK SLP275 T00161083 10017 21136 57003
 
KENV - Wendover (aut), Utah, USA
Distance from station: WSW 105mi, 169km
Updated: Sun, 24-Jan-2021 4:15am MST
Overcast
Overcast
 Wind from calm
Wind: Calm
Temperature: 28°F , -2°C
Dew Point: 27°F , -3°C
Humidity: 93%
Barometer: 29.88 inHg , 1011.9 hPa
Clouds: Overcast
Visibility: 10 miles , 16 km
Cloud details: Partly cloudy 200 ft
Overcast 1200 ft
2021/01/24 11:15 KENV 241115Z AUTO 00000KT 10SM SCT002 OVC012 M02/M03 A2988 RMK AO2 FZRANO
KPUC - Price, Utah, USA
Distance from station: SE 123mi, 197km
Updated: Sun, 24-Jan-2021 3:53am MST
Few Clouds
Few Clouds
 Wind from NNW
Wind: NNW 6 mph , 9 km/h
Temperature: 19°F , -7°C
Wind Chill: 11°F , -12°C
Dew Point: 16°F , -9°C
Humidity: 86%
Barometer: 29.79 inHg , 1008.8 hPa
Clouds: Few Clouds
Visibility: 10 miles , 16 km
Cloud details: Few Clouds 6500 ft
2021/01/24 10:53 KPUC 241053Z AUTO 33005KT 10SM FEW065 M07/M09 A2979 RMK AO2 SLP126 T10721089
 
KPIH - Pocatello, Idaho, USA
Distance from station: NNW 130mi, 208km
Updated: Sun, 24-Jan-2021 3:53am MST
Mostly cloudy
Mostly cloudy
 Wind from E
Wind: E 5 mph , 7 km/h
Temperature: 19°F , -7°C
Wind Chill: 12°F , -11°C
Dew Point: 16°F , -9°C
Humidity: 86%
Barometer: 29.90 inHg , 1012.5 hPa
Clouds: Mostly cloudy
Visibility: 10 miles , 16 km
Cloud details: Mostly cloudy 2500 ft
2021/01/24 10:53 KPIH 241053Z AUTO 09004KT 10SM BKN025 M07/M09 A2990 RMK AO2 SLP152 T10671089 $
KBYI - Burley, Idaho, USA
Distance from station: NW 134mi, 216km
Updated: Sun, 24-Jan-2021 3:53am MST
Clear
Clear
 Wind from SSE
Wind: SSE 3 mph , 6 km/h
Temperature: 14°F , -10°C
Dew Point: 9°F , -13°C
Humidity: 79%
Barometer: 29.88 inHg , 1011.9 hPa
Clouds: Clear
Visibility: 10 miles , 16 km
2021/01/24 10:53 KBYI 241053Z AUTO 16003KT 10SM CLR M10/M13 A2988 RMK AO2 SLP151 T11001133
 
KVEL - Vernal, Utah, USA
Distance from station: ESE 140mi, 226km
Updated: Sun, 24-Jan-2021 3:53am MST
Clear
Clear
 Wind from W
Wind: W 3 mph , 6 km/h
Temperature: 12°F , -11°C
Dew Point: 10°F , -12°C
Humidity: 92%
Barometer: 29.83 inHg , 1010.2 hPa
Clouds: Clear
Visibility: 10 miles , 16 km
2021/01/24 10:53 KVEL 241053Z AUTO 28003KT 10SM CLR M11/M12 A2983 RMK AO2 SLP141 I1000 T11061117
KBPI - Big Piney, Wyoming, USA
Distance from station: NE 145mi, 234km
Updated: Sun, 24-Jan-2021 4:34am MST
Light snow, Mist, Overcast
Light snow, Mist, Overcast
 Wind from calm
Wind: Calm
Temperature: 18°F , -8°C
Dew Point: 14°F , -10°C
Humidity: 86%
Barometer: 29.78 inHg , 1008.5 hPa
Summary: Light snow, Mist
Clouds: Overcast
Visibility: 2 miles , 3 km
Cloud details: Overcast 2900 ft
2021/01/24 11:34 KBPI 241134Z AUTO 00000KT 2SM -SN BR OVC029 M08/M10 A2978 RMK AO2 P0000 T10831100